sensor_id;sensor_type;location;lat;lon;timestamp;P1;durP1;ratioP1;P2;durP2;ratioP2
75655;SDS011;64252;51.094;13.714;2022-12-16T00:01:37;38.90;;;15.73;;
75655;SDS011;64252;51.094;13.714;2022-12-16T00:04:02;37.42;;;14.15;;
75655;SDS011;64252;51.094;13.714;2022-12-16T00:06:29;49.22;;;18.35;;
75655;SDS011;64252;51.094;13.714;2022-12-16T00:08:58;48.90;;;18.90;;
75655;SDS011;64252;51.094;13.714;2022-12-16T00:11:24;45.75;;;18.90;;
75655;SDS011;64252;51.094;13.714;2022-12-16T00:13:50;48.05;;;17.75;;
75655;SDS011;64252;51.094;13.714;2022-12-16T00:16:16;44.55;;;16.88;;
75655;SDS011;64252;51.094;13.714;2022-12-16T00:18:43;48.47;;;19.27;;
75655;SDS011;64252;51.094;13.714;2022-12-16T00:21:10;50.60;;;20.52;;
75655;SDS011;64252;51.094;13.714;2022-12-16T00:23:35;43.05;;;16.65;;
75655;SDS011;64252;51.094;13.714;2022-12-16T00:26:03;49.70;;;19.02;;
75655;SDS011;64252;51.094;13.714;2022-12-16T00:28:30;49.92;;;19.88;;
75655;SDS011;64252;51.094;13.714;2022-12-16T00:30:56;47.53;;;18.08;;
75655;SDS011;64252;51.094;13.714;2022-12-16T00:33:23;51.90;;;20.02;;
75655;SDS011;64252;51.094;13.714;2022-12-16T00:35:50;42.42;;;17.10;;
75655;SDS011;64252;51.094;13.714;2022-12-16T00:38:17;40.10;;;16.33;;
75655;SDS011;64252;51.094;13.714;2022-12-16T00:40:43;45.67;;;18.45;;
75655;SDS011;64252;51.094;13.714;2022-12-16T00:43:08;45.13;;;19.33;;
75655;SDS011;64252;51.094;13.714;2022-12-16T00:45:35;50.28;;;20.35;;
75655;SDS011;64252;51.094;13.714;2022-12-16T00:48:01;47.25;;;17.85;;
75655;SDS011;64252;51.094;13.714;2022-12-16T00:50:27;49.45;;;19.35;;
75655;SDS011;64252;51.094;13.714;2022-12-16T00:52:53;45.00;;;17.27;;
75655;SDS011;64252;51.094;13.714;2022-12-16T00:55:18;45.85;;;16.95;;
75655;SDS011;64252;51.094;13.714;2022-12-16T00:57:44;48.65;;;19.15;;
75655;SDS011;64252;51.094;13.714;2022-12-16T01:00:10;52.67;;;20.30;;
75655;SDS011;64252;51.094;13.714;2022-12-16T01:02:38;49.10;;;22.13;;
75655;SDS011;64252;51.094;13.714;2022-12-16T01:05:05;53.63;;;20.65;;
75655;SDS011;64252;51.094;13.714;2022-12-16T01:07:32;51.13;;;20.60;;
75655;SDS011;64252;51.094;13.714;2022-12-16T01:09:57;47.53;;;18.65;;
75655;SDS011;64252;51.094;13.714;2022-12-16T01:12:23;55.03;;;22.73;;
75655;SDS011;64252;51.094;13.714;2022-12-16T01:14:48;57.30;;;22.30;;
75655;SDS011;64252;51.094;13.714;2022-12-16T01:17:14;51.83;;;20.25;;
75655;SDS011;64252;51.094;13.714;2022-12-16T01:19:40;48.90;;;20.70;;
75655;SDS011;64252;51.094;13.714;2022-12-16T01:22:05;42.03;;;15.95;;
75655;SDS011;64252;51.094;13.714;2022-12-16T01:24:31;56.72;;;21.63;;
75655;SDS011;64252;51.094;13.714;2022-12-16T01:26:57;46.83;;;17.65;;
75655;SDS011;64252;51.094;13.714;2022-12-16T01:29:23;50.65;;;18.45;;
75655;SDS011;64252;51.094;13.714;2022-12-16T01:31:48;48.50;;;18.33;;
75655;SDS011;64252;51.094;13.714;2022-12-16T01:34:14;46.88;;;20.38;;
75655;SDS011;64252;51.094;13.714;2022-12-16T01:36:41;50.63;;;20.83;;
75655;SDS011;64252;51.094;13.714;2022-12-16T01:39:08;51.13;;;20.13;;
75655;SDS011;64252;51.094;13.714;2022-12-16T01:41:35;44.72;;;19.13;;
75655;SDS011;64252;51.094;13.714;2022-12-16T01:46:42;52.80;;;20.00;;
75655;SDS011;64252;51.094;13.714;2022-12-16T01:49:21;46.60;;;19.83;;
75655;SDS011;64252;51.094;13.714;2022-12-16T01:51:50;44.30;;;17.52;;
75655;SDS011;64252;51.094;13.714;2022-12-16T01:54:18;43.58;;;16.77;;
75655;SDS011;64252;51.094;13.714;2022-12-16T01:56:52;45.88;;;16.85;;
75655;SDS011;64252;51.094;13.714;2022-12-16T01:59:20;40.03;;;15.80;;
75655;SDS011;64252;51.094;13.714;2022-12-16T02:01:48;46.90;;;16.85;;
75655;SDS011;64252;51.094;13.714;2022-12-16T02:04:14;51.97;;;21.42;;
75655;SDS011;64252;51.094;13.714;2022-12-16T02:06:39;48.22;;;19.40;;
75655;SDS011;64252;51.094;13.714;2022-12-16T02:09:05;47.15;;;19.50;;
75655;SDS011;64252;51.094;13.714;2022-12-16T02:20:20;57.15;;;21.38;;
75655;SDS011;64252;51.094;13.714;2022-12-16T02:39:19;55.03;;;20.65;;
75655;SDS011;64252;51.094;13.714;2022-12-16T02:41:53;38.17;;;16.90;;
75655;SDS011;64252;51.094;13.714;2022-12-16T02:44:56;52.10;;;21.45;;
75655;SDS011;64252;51.094;13.714;2022-12-16T02:47:24;49.50;;;20.55;;
75655;SDS011;64252;51.094;13.714;2022-12-16T02:49:50;53.28;;;21.85;;
75655;SDS011;64252;51.094;13.714;2022-12-16T02:52:18;48.92;;;20.25;;
75655;SDS011;64252;51.094;13.714;2022-12-16T02:54:59;51.80;;;21.55;;
75655;SDS011;64252;51.094;13.714;2022-12-16T02:57:44;43.63;;;17.30;;
75655;SDS011;64252;51.094;13.714;2022-12-16T03:00:23;57.70;;;21.95;;
75655;SDS011;64252;51.094;13.714;2022-12-16T03:03:00;46.28;;;19.63;;
75655;SDS011;64252;51.094;13.714;2022-12-16T03:05:32;63.15;;;24.00;;
75655;SDS011;64252;51.094;13.714;2022-12-16T03:08:02;43.50;;;17.88;;
75655;SDS011;64252;51.094;13.714;2022-12-16T03:10:33;47.45;;;19.60;;
75655;SDS011;64252;51.094;13.714;2022-12-16T03:13:04;47.67;;;21.25;;
75655;SDS011;64252;51.094;13.714;2022-12-16T03:15:32;50.80;;;19.70;;
75655;SDS011;64252;51.094;13.714;2022-12-16T03:17:59;47.70;;;18.88;;
75655;SDS011;64252;51.094;13.714;2022-12-16T03:20:29;51.97;;;19.35;;
75655;SDS011;64252;51.094;13.714;2022-12-16T03:23:00;50.10;;;19.13;;
75655;SDS011;64252;51.094;13.714;2022-12-16T03:25:30;44.63;;;17.73;;
75655;SDS011;64252;51.094;13.714;2022-12-16T03:28:05;48.67;;;18.90;;
75655;SDS011;64252;51.094;13.714;2022-12-16T03:30:54;46.85;;;19.48;;
75655;SDS011;64252;51.094;13.714;2022-12-16T03:33:31;48.95;;;20.48;;
75655;SDS011;64252;51.094;13.714;2022-12-16T03:36:20;43.70;;;18.25;;
75655;SDS011;64252;51.094;13.714;2022-12-16T03:38:49;49.42;;;18.30;;
75655;SDS011;64252;51.094;13.714;2022-12-16T03:41:16;42.92;;;18.27;;
75655;SDS011;64252;51.094;13.714;2022-12-16T03:43:44;49.33;;;19.55;;
75655;SDS011;64252;51.094;13.714;2022-12-16T03:46:12;46.25;;;17.67;;
75655;SDS011;64252;51.094;13.714;2022-12-16T03:48:50;49.67;;;19.58;;
75655;SDS011;64252;51.094;13.714;2022-12-16T03:51:16;42.45;;;17.38;;
75655;SDS011;64252;51.094;13.714;2022-12-16T03:53:43;41.63;;;16.15;;
75655;SDS011;64252;51.094;13.714;2022-12-16T03:56:09;41.70;;;15.52;;
75655;SDS011;64252;51.094;13.714;2022-12-16T03:58:36;41.88;;;18.23;;
75655;SDS011;64252;51.094;13.714;2022-12-16T04:01:04;44.60;;;18.75;;
75655;SDS011;64252;51.094;13.714;2022-12-16T04:03:30;42.22;;;15.43;;
75655;SDS011;64252;51.094;13.714;2022-12-16T04:05:56;43.80;;;17.05;;
75655;SDS011;64252;51.094;13.714;2022-12-16T04:08:21;40.13;;;17.30;;
75655;SDS011;64252;51.094;13.714;2022-12-16T04:10:49;49.80;;;20.60;;
75655;SDS011;64252;51.094;13.714;2022-12-16T04:13:34;38.80;;;15.70;;
75655;SDS011;64252;51.094;13.714;2022-12-16T04:16:29;43.33;;;17.13;;
75655;SDS011;64252;51.094;13.714;2022-12-16T04:19:34;47.22;;;17.73;;
75655;SDS011;64252;51.094;13.714;2022-12-16T04:25:12;45.72;;;18.17;;
75655;SDS011;64252;51.094;13.714;2022-12-16T04:27:44;33.75;;;14.23;;
75655;SDS011;64252;51.094;13.714;2022-12-16T04:30:14;36.90;;;17.05;;
75655;SDS011;64252;51.094;13.714;2022-12-16T04:32:44;39.28;;;15.82;;
75655;SDS011;64252;51.094;13.714;2022-12-16T04:35:33;39.05;;;15.77;;
75655;SDS011;64252;51.094;13.714;2022-12-16T04:38:18;37.28;;;15.68;;
75655;SDS011;64252;51.094;13.714;2022-12-16T04:41:02;41.72;;;18.00;;
75655;SDS011;64252;51.094;13.714;2022-12-16T04:43:46;28.92;;;12.02;;
75655;SDS011;64252;51.094;13.714;2022-12-16T04:46:30;41.33;;;15.73;;
75655;SDS011;64252;51.094;13.714;2022-12-16T04:49:14;37.22;;;14.57;;
75655;SDS011;64252;51.094;13.714;2022-12-16T04:51:58;30.30;;;12.95;;
75655;SDS011;64252;51.094;13.714;2022-12-16T04:54:42;35.25;;;14.80;;
75655;SDS011;64252;51.094;13.714;2022-12-16T04:57:26;40.15;;;14.85;;
75655;SDS011;64252;51.094;13.714;2022-12-16T05:00:10;39.65;;;15.93;;
75655;SDS011;64252;51.094;13.714;2022-12-16T05:02:55;31.33;;;14.98;;
75655;SDS011;64252;51.094;13.714;2022-12-16T05:05:39;40.30;;;16.35;;
75655;SDS011;64252;51.094;13.714;2022-12-16T05:08:23;35.10;;;15.25;;
75655;SDS011;64252;51.094;13.714;2022-12-16T05:11:07;37.55;;;15.98;;
75655;SDS011;64252;51.094;13.714;2022-12-16T05:13:52;31.30;;;14.65;;
75655;SDS011;64252;51.094;13.714;2022-12-16T05:16:35;37.60;;;16.00;;
75655;SDS011;64252;51.094;13.714;2022-12-16T05:19:19;33.40;;;14.82;;
75655;SDS011;64252;51.094;13.714;2022-12-16T05:22:03;40.13;;;14.98;;
75655;SDS011;64252;51.094;13.714;2022-12-16T05:24:48;41.47;;;16.40;;
75655;SDS011;64252;51.094;13.714;2022-12-16T05:27:32;39.45;;;14.75;;
75655;SDS011;64252;51.094;13.714;2022-12-16T05:30:17;39.30;;;16.27;;
75655;SDS011;64252;51.094;13.714;2022-12-16T05:33:01;37.70;;;15.50;;
75655;SDS011;64252;51.094;13.714;2022-12-16T05:35:46;38.33;;;15.57;;
75655;SDS011;64252;51.094;13.714;2022-12-16T05:38:29;34.75;;;15.48;;
75655;SDS011;64252;51.094;13.714;2022-12-16T05:41:13;28.23;;;12.13;;
75655;SDS011;64252;51.094;13.714;2022-12-16T05:43:57;30.23;;;12.38;;
75655;SDS011;64252;51.094;13.714;2022-12-16T05:46:41;33.05;;;13.65;;
75655;SDS011;64252;51.094;13.714;2022-12-16T05:49:25;39.80;;;15.35;;
75655;SDS011;64252;51.094;13.714;2022-12-16T05:52:10;28.20;;;11.25;;
75655;SDS011;64252;51.094;13.714;2022-12-16T05:54:54;38.38;;;14.75;;
75655;SDS011;64252;51.094;13.714;2022-12-16T05:57:38;34.65;;;14.13;;
75655;SDS011;64252;51.094;13.714;2022-12-16T06:00:22;35.17;;;16.20;;
75655;SDS011;64252;51.094;13.714;2022-12-16T06:03:06;30.83;;;13.20;;
75655;SDS011;64252;51.094;13.714;2022-12-16T06:05:49;34.55;;;14.32;;
75655;SDS011;64252;51.094;13.714;2022-12-16T06:08:33;32.22;;;12.93;;
75655;SDS011;64252;51.094;13.714;2022-12-16T06:11:17;33.63;;;14.23;;
75655;SDS011;64252;51.094;13.714;2022-12-16T06:14:02;32.83;;;14.40;;
75655;SDS011;64252;51.094;13.714;2022-12-16T06:16:45;35.33;;;14.55;;
75655;SDS011;64252;51.094;13.714;2022-12-16T06:19:29;36.58;;;14.57;;
75655;SDS011;64252;51.094;13.714;2022-12-16T06:22:13;33.05;;;12.95;;
75655;SDS011;64252;51.094;13.714;2022-12-16T06:24:57;42.58;;;17.05;;
75655;SDS011;64252;51.094;13.714;2022-12-16T06:27:41;35.95;;;14.23;;
75655;SDS011;64252;51.094;13.714;2022-12-16T06:30:25;38.90;;;14.45;;
75655;SDS011;64252;51.094;13.714;2022-12-16T06:33:09;37.03;;;15.38;;
75655;SDS011;64252;51.094;13.714;2022-12-16T06:35:53;39.40;;;16.05;;
75655;SDS011;64252;51.094;13.714;2022-12-16T06:38:37;43.22;;;15.73;;
75655;SDS011;64252;51.094;13.714;2022-12-16T06:41:21;41.78;;;17.42;;
75655;SDS011;64252;51.094;13.714;2022-12-16T06:44:05;43.97;;;17.77;;
75655;SDS011;64252;51.094;13.714;2022-12-16T06:46:48;42.22;;;16.20;;
75655;SDS011;64252;51.094;13.714;2022-12-16T06:49:33;40.72;;;14.35;;
75655;SDS011;64252;51.094;13.714;2022-12-16T06:52:16;40.22;;;15.68;;
75655;SDS011;64252;51.094;13.714;2022-12-16T06:55:00;44.50;;;17.00;;
75655;SDS011;64252;51.094;13.714;2022-12-16T06:57:44;45.13;;;19.27;;
75655;SDS011;64252;51.094;13.714;2022-12-16T07:00:28;41.05;;;16.52;;
75655;SDS011;64252;51.094;13.714;2022-12-16T07:03:12;41.10;;;15.50;;
75655;SDS011;64252;51.094;13.714;2022-12-16T07:05:56;47.92;;;19.15;;
75655;SDS011;64252;51.094;13.714;2022-12-16T07:08:40;38.25;;;17.25;;
75655;SDS011;64252;51.094;13.714;2022-12-16T07:11:24;47.15;;;20.35;;
75655;SDS011;64252;51.094;13.714;2022-12-16T07:14:08;53.30;;;19.67;;
75655;SDS011;64252;51.094;13.714;2022-12-16T07:16:52;59.05;;;23.60;;
75655;SDS011;64252;51.094;13.714;2022-12-16T07:19:36;61.03;;;26.65;;
75655;SDS011;64252;51.094;13.714;2022-12-16T07:22:20;48.70;;;21.25;;
75655;SDS011;64252;51.094;13.714;2022-12-16T07:25:04;49.45;;;20.17;;
75655;SDS011;64252;51.094;13.714;2022-12-16T07:27:48;47.53;;;19.05;;
75655;SDS011;64252;51.094;13.714;2022-12-16T07:30:32;48.58;;;18.15;;
75655;SDS011;64252;51.094;13.714;2022-12-16T07:33:16;40.00;;;15.45;;
75655;SDS011;64252;51.094;13.714;2022-12-16T07:36:00;47.40;;;19.42;;
75655;SDS011;64252;51.094;13.714;2022-12-16T07:38:44;60.55;;;22.77;;
75655;SDS011;64252;51.094;13.714;2022-12-16T07:41:28;53.10;;;21.08;;
75655;SDS011;64252;51.094;13.714;2022-12-16T07:44:12;56.22;;;22.52;;
75655;SDS011;64252;51.094;13.714;2022-12-16T07:46:56;52.65;;;21.30;;
75655;SDS011;64252;51.094;13.714;2022-12-16T07:49:40;46.08;;;18.35;;
75655;SDS011;64252;51.094;13.714;2022-12-16T07:52:24;55.55;;;22.23;;
75655;SDS011;64252;51.094;13.714;2022-12-16T07:55:08;62.95;;;24.90;;
75655;SDS011;64252;51.094;13.714;2022-12-16T07:57:51;60.63;;;23.60;;
75655;SDS011;64252;51.094;13.714;2022-12-16T08:00:35;52.22;;;21.52;;
75655;SDS011;64252;51.094;13.714;2022-12-16T08:03:19;61.60;;;24.27;;
75655;SDS011;64252;51.094;13.714;2022-12-16T08:06:03;52.97;;;20.65;;
75655;SDS011;64252;51.094;13.714;2022-12-16T08:08:47;60.05;;;23.23;;
75655;SDS011;64252;51.094;13.714;2022-12-16T08:11:31;54.80;;;23.30;;
75655;SDS011;64252;51.094;13.714;2022-12-16T08:14:15;48.28;;;21.38;;
75655;SDS011;64252;51.094;13.714;2022-12-16T08:16:59;43.80;;;19.65;;
75655;SDS011;64252;51.094;13.714;2022-12-16T08:19:43;53.92;;;23.73;;
75655;SDS011;64252;51.094;13.714;2022-12-16T08:22:27;53.35;;;22.42;;
75655;SDS011;64252;51.094;13.714;2022-12-16T08:25:11;58.90;;;25.38;;
75655;SDS011;64252;51.094;13.714;2022-12-16T08:27:55;61.45;;;25.10;;
75655;SDS011;64252;51.094;13.714;2022-12-16T08:30:39;64.55;;;27.42;;
75655;SDS011;64252;51.094;13.714;2022-12-16T08:33:28;61.50;;;26.38;;
75655;SDS011;64252;51.094;13.714;2022-12-16T08:36:12;59.72;;;27.02;;
75655;SDS011;64252;51.094;13.714;2022-12-16T08:38:56;61.45;;;24.33;;
75655;SDS011;64252;51.094;13.714;2022-12-16T08:41:40;64.68;;;26.95;;
75655;SDS011;64252;51.094;13.714;2022-12-16T08:44:24;62.90;;;24.95;;
75655;SDS011;64252;51.094;13.714;2022-12-16T08:47:08;61.97;;;26.65;;
75655;SDS011;64252;51.094;13.714;2022-12-16T08:49:52;60.40;;;24.38;;
75655;SDS011;64252;51.094;13.714;2022-12-16T08:52:36;62.95;;;25.20;;
75655;SDS011;64252;51.094;13.714;2022-12-16T08:55:21;58.25;;;23.42;;
75655;SDS011;64252;51.094;13.714;2022-12-16T08:58:04;58.35;;;21.25;;
75655;SDS011;64252;51.094;13.714;2022-12-16T09:00:49;58.97;;;24.33;;
75655;SDS011;64252;51.094;13.714;2022-12-16T09:03:33;61.22;;;25.90;;
75655;SDS011;64252;51.094;13.714;2022-12-16T09:06:17;68.20;;;26.48;;
75655;SDS011;64252;51.094;13.714;2022-12-16T09:09:01;60.72;;;22.55;;
75655;SDS011;64252;51.094;13.714;2022-12-16T09:11:45;62.15;;;24.83;;
75655;SDS011;64252;51.094;13.714;2022-12-16T09:14:29;52.85;;;22.25;;
75655;SDS011;64252;51.094;13.714;2022-12-16T09:17:13;51.22;;;21.35;;
75655;SDS011;64252;51.094;13.714;2022-12-16T09:19:57;54.78;;;22.23;;
75655;SDS011;64252;51.094;13.714;2022-12-16T09:22:40;52.10;;;19.80;;
75655;SDS011;64252;51.094;13.714;2022-12-16T09:25:24;53.30;;;21.13;;
75655;SDS011;64252;51.094;13.714;2022-12-16T09:28:08;51.65;;;20.58;;
75655;SDS011;64252;51.094;13.714;2022-12-16T09:30:52;51.08;;;22.55;;
75655;SDS011;64252;51.094;13.714;2022-12-16T09:33:36;51.20;;;21.08;;
75655;SDS011;64252;51.094;13.714;2022-12-16T09:36:22;49.88;;;20.23;;
75655;SDS011;64252;51.094;13.714;2022-12-16T09:39:05;50.92;;;20.88;;
75655;SDS011;64252;51.094;13.714;2022-12-16T09:42:00;52.90;;;21.27;;
75655;SDS011;64252;51.094;13.714;2022-12-16T09:45:02;51.80;;;20.70;;
75655;SDS011;64252;51.094;13.714;2022-12-16T09:50:57;39.83;;;18.17;;
75655;SDS011;64252;51.094;13.714;2022-12-16T09:53:47;50.72;;;20.88;;
75655;SDS011;64252;51.094;13.714;2022-12-16T09:56:34;48.50;;;20.30;;
75655;SDS011;64252;51.094;13.714;2022-12-16T09:59:21;55.40;;;21.50;;
75655;SDS011;64252;51.094;13.714;2022-12-16T10:02:11;48.95;;;20.67;;
75655;SDS011;64252;51.094;13.714;2022-12-16T10:04:57;53.10;;;19.70;;
75655;SDS011;64252;51.094;13.714;2022-12-16T10:07:47;57.67;;;22.35;;
75655;SDS011;64252;51.094;13.714;2022-12-16T10:13:57;50.10;;;19.58;;
75655;SDS011;64252;51.094;13.714;2022-12-16T10:16:58;46.65;;;19.05;;
75655;SDS011;64252;51.094;13.714;2022-12-16T10:19:47;49.08;;;20.92;;
75655;SDS011;64252;51.094;13.714;2022-12-16T10:22:41;52.03;;;20.95;;
75655;SDS011;64252;51.094;13.714;2022-12-16T10:31:46;49.08;;;22.85;;
75655;SDS011;64252;51.094;13.714;2022-12-16T10:34:31;60.00;;;23.17;;
75655;SDS011;64252;51.094;13.714;2022-12-16T10:37:29;45.83;;;18.58;;
75655;SDS011;64252;51.094;13.714;2022-12-16T10:40:20;43.72;;;19.42;;
75655;SDS011;64252;51.094;13.714;2022-12-16T10:43:18;47.35;;;20.42;;
75655;SDS011;64252;51.094;13.714;2022-12-16T10:46:19;51.47;;;20.23;;
75655;SDS011;64252;51.094;13.714;2022-12-16T10:49:10;53.85;;;22.08;;
75655;SDS011;64252;51.094;13.714;2022-12-16T10:51:57;56.45;;;20.58;;
75655;SDS011;64252;51.094;13.714;2022-12-16T10:54:43;50.10;;;20.70;;
75655;SDS011;64252;51.094;13.714;2022-12-16T11:03:26;47.95;;;19.38;;
75655;SDS011;64252;51.094;13.714;2022-12-16T11:06:18;47.65;;;21.23;;
75655;SDS011;64252;51.094;13.714;2022-12-16T11:12:23;45.55;;;19.83;;
75655;SDS011;64252;51.094;13.714;2022-12-16T11:15:27;48.97;;;21.10;;
75655;SDS011;64252;51.094;13.714;2022-12-16T11:18:22;47.33;;;21.40;;
75655;SDS011;64252;51.094;13.714;2022-12-16T11:21:14;50.22;;;21.02;;
75655;SDS011;64252;51.094;13.714;2022-12-16T11:24:04;48.38;;;22.10;;
75655;SDS011;64252;51.094;13.714;2022-12-16T11:26:56;45.03;;;21.23;;
75655;SDS011;64252;51.094;13.714;2022-12-16T11:29:48;41.60;;;19.50;;
75655;SDS011;64252;51.094;13.714;2022-12-16T11:32:37;37.45;;;17.08;;
75655;SDS011;64252;51.094;13.714;2022-12-16T11:35:25;40.00;;;18.20;;
75655;SDS011;64252;51.094;13.714;2022-12-16T11:41:08;51.40;;;21.58;;
75655;SDS011;64252;51.094;13.714;2022-12-16T11:44:02;49.53;;;20.52;;
75655;SDS011;64252;51.094;13.714;2022-12-16T11:46:47;47.47;;;21.80;;
75655;SDS011;64252;51.094;13.714;2022-12-16T11:49:32;50.95;;;22.33;;
75655;SDS011;64252;51.094;13.714;2022-12-16T11:52:17;51.03;;;22.17;;
75655;SDS011;64252;51.094;13.714;2022-12-16T11:55:12;52.33;;;22.85;;
75655;SDS011;64252;51.094;13.714;2022-12-16T12:00:47;52.60;;;22.73;;
75655;SDS011;64252;51.094;13.714;2022-12-16T12:03:41;50.03;;;21.58;;
75655;SDS011;64252;51.094;13.714;2022-12-16T12:06:31;50.45;;;22.00;;
75655;SDS011;64252;51.094;13.714;2022-12-16T12:09:43;48.58;;;20.23;;
75655;SDS011;64252;51.094;13.714;2022-12-16T12:18:57;48.13;;;21.55;;
75655;SDS011;64252;51.094;13.714;2022-12-16T12:31:00;46.70;;;20.83;;
75655;SDS011;64252;51.094;13.714;2022-12-16T12:33:50;54.17;;;23.40;;
75655;SDS011;64252;51.094;13.714;2022-12-16T12:37:04;41.78;;;17.95;;
75655;SDS011;64252;51.094;13.714;2022-12-16T12:43:24;53.92;;;22.00;;
75655;SDS011;64252;51.094;13.714;2022-12-16T12:46:48;45.25;;;19.90;;
75655;SDS011;64252;51.094;13.714;2022-12-16T12:52:57;50.80;;;21.45;;
75655;SDS011;64252;51.094;13.714;2022-12-16T12:56:08;45.35;;;20.95;;
75655;SDS011;64252;51.094;13.714;2022-12-16T12:59:21;39.45;;;18.05;;
75655;SDS011;64252;51.094;13.714;2022-12-16T13:02:14;42.28;;;18.00;;
75655;SDS011;64252;51.094;13.714;2022-12-16T13:05:04;43.67;;;20.05;;
75655;SDS011;64252;51.094;13.714;2022-12-16T13:07:49;41.35;;;19.27;;
75655;SDS011;64252;51.094;13.714;2022-12-16T13:10:36;45.97;;;20.58;;
75655;SDS011;64252;51.094;13.714;2022-12-16T13:13:27;50.25;;;21.95;;
75655;SDS011;64252;51.094;13.714;2022-12-16T13:28:22;52.88;;;22.08;;
75655;SDS011;64252;51.094;13.714;2022-12-16T13:31:09;48.85;;;20.13;;
75655;SDS011;64252;51.094;13.714;2022-12-16T13:34:01;58.53;;;22.73;;
75655;SDS011;64252;51.094;13.714;2022-12-16T13:36:56;44.38;;;19.27;;
75655;SDS011;64252;51.094;13.714;2022-12-16T13:39:42;51.28;;;20.67;;
75655;SDS011;64252;51.094;13.714;2022-12-16T13:45:16;53.28;;;22.55;;
75655;SDS011;64252;51.094;13.714;2022-12-16T13:54:28;44.65;;;19.88;;
75655;SDS011;64252;51.094;13.714;2022-12-16T13:57:18;48.78;;;22.13;;
75655;SDS011;64252;51.094;13.714;2022-12-16T14:00:05;54.65;;;23.27;;
75655;SDS011;64252;51.094;13.714;2022-12-16T14:03:00;53.67;;;23.83;;
75655;SDS011;64252;51.094;13.714;2022-12-16T14:05:47;49.53;;;21.77;;
75655;SDS011;64252;51.094;13.714;2022-12-16T14:08:34;52.20;;;23.27;;
75655;SDS011;64252;51.094;13.714;2022-12-16T14:11:24;47.63;;;21.30;;
75655;SDS011;64252;51.094;13.714;2022-12-16T14:14:21;47.80;;;20.90;;
75655;SDS011;64252;51.094;13.714;2022-12-16T14:17:16;53.63;;;23.02;;
75655;SDS011;64252;51.094;13.714;2022-12-16T14:26:12;59.50;;;24.75;;
75655;SDS011;64252;51.094;13.714;2022-12-16T14:29:00;55.38;;;23.55;;
75655;SDS011;64252;51.094;13.714;2022-12-16T14:31:46;57.05;;;23.50;;
75655;SDS011;64252;51.094;13.714;2022-12-16T14:34:31;54.58;;;23.52;;
75655;SDS011;64252;51.094;13.714;2022-12-16T14:40:01;59.65;;;23.55;;
75655;SDS011;64252;51.094;13.714;2022-12-16T14:42:51;52.03;;;20.33;;
75655;SDS011;64252;51.094;13.714;2022-12-16T14:45:38;58.72;;;24.00;;
75655;SDS011;64252;51.094;13.714;2022-12-16T14:48:35;57.10;;;23.83;;
75655;SDS011;64252;51.094;13.714;2022-12-16T14:57:11;53.55;;;24.83;;
75655;SDS011;64252;51.094;13.714;2022-12-16T15:00:16;50.83;;;20.27;;
75655;SDS011;64252;51.094;13.714;2022-12-16T15:03:06;59.80;;;22.83;;
75655;SDS011;64252;51.094;13.714;2022-12-16T15:05:56;51.05;;;22.25;;
75655;SDS011;64252;51.094;13.714;2022-12-16T15:09:03;58.90;;;23.52;;
75655;SDS011;64252;51.094;13.714;2022-12-16T15:11:47;55.47;;;20.63;;
75655;SDS011;64252;51.094;13.714;2022-12-16T15:14:35;59.20;;;22.95;;
75655;SDS011;64252;51.094;13.714;2022-12-16T15:17:22;50.55;;;21.20;;
75655;SDS011;64252;51.094;13.714;2022-12-16T15:20:18;55.40;;;23.35;;
75655;SDS011;64252;51.094;13.714;2022-12-16T15:26:16;56.20;;;23.40;;
75655;SDS011;64252;51.094;13.714;2022-12-16T15:29:22;60.72;;;25.33;;
75655;SDS011;64252;51.094;13.714;2022-12-16T15:35:07;54.72;;;22.27;;
75655;SDS011;64252;51.094;13.714;2022-12-16T15:38:27;48.60;;;19.08;;
75655;SDS011;64252;51.094;13.714;2022-12-16T15:41:16;54.97;;;23.70;;
75655;SDS011;64252;51.094;13.714;2022-12-16T15:44:04;61.65;;;24.38;;
75655;SDS011;64252;51.094;13.714;2022-12-16T15:46:48;56.30;;;22.92;;
75655;SDS011;64252;51.094;13.714;2022-12-16T15:49:37;47.63;;;20.63;;
75655;SDS011;64252;51.094;13.714;2022-12-16T15:52:29;57.25;;;22.40;;
75655;SDS011;64252;51.094;13.714;2022-12-16T15:58:19;54.33;;;23.50;;
75655;SDS011;64252;51.094;13.714;2022-12-16T16:01:04;53.28;;;20.40;;
75655;SDS011;64252;51.094;13.714;2022-12-16T16:03:50;44.97;;;19.17;;
75655;SDS011;64252;51.094;13.714;2022-12-16T16:06:36;50.60;;;22.52;;
75655;SDS011;64252;51.094;13.714;2022-12-16T16:09:21;56.60;;;21.83;;
75655;SDS011;64252;51.094;13.714;2022-12-16T16:12:10;54.38;;;23.10;;
75655;SDS011;64252;51.094;13.714;2022-12-16T16:14:55;46.88;;;20.48;;
75655;SDS011;64252;51.094;13.714;2022-12-16T16:17:40;57.30;;;22.73;;
75655;SDS011;64252;51.094;13.714;2022-12-16T20:44:02;55.10;;;22.38;;
75655;SDS011;64252;51.094;13.714;2022-12-16T20:46:46;49.83;;;23.90;;
75655;SDS011;64252;51.094;13.714;2022-12-16T20:49:30;53.38;;;24.48;;
75655;SDS011;64252;51.094;13.714;2022-12-16T20:52:14;64.18;;;26.17;;
75655;SDS011;64252;51.094;13.714;2022-12-16T20:54:58;51.47;;;22.92;;
75655;SDS011;64252;51.094;13.714;2022-12-16T20:57:42;57.30;;;24.27;;
75655;SDS011;64252;51.094;13.714;2022-12-16T21:00:26;52.28;;;21.73;;
75655;SDS011;64252;51.094;13.714;2022-12-16T21:03:10;51.58;;;20.65;;
75655;SDS011;64252;51.094;13.714;2022-12-16T21:09:41;57.92;;;26.55;;
75655;SDS011;64252;51.094;13.714;2022-12-16T21:12:25;51.47;;;23.05;;
75655;SDS011;64252;51.094;13.714;2022-12-16T21:15:09;50.88;;;20.75;;
75655;SDS011;64252;51.094;13.714;2022-12-16T21:17:52;54.05;;;24.02;;
75655;SDS011;64252;51.094;13.714;2022-12-16T21:20:36;54.28;;;24.20;;
75655;SDS011;64252;51.094;13.714;2022-12-16T21:23:20;58.90;;;23.17;;
75655;SDS011;64252;51.094;13.714;2022-12-16T21:26:04;54.67;;;23.20;;
75655;SDS011;64252;51.094;13.714;2022-12-16T21:28:49;55.63;;;25.92;;
75655;SDS011;64252;51.094;13.714;2022-12-16T21:31:32;61.65;;;25.95;;
75655;SDS011;64252;51.094;13.714;2022-12-16T21:34:16;60.78;;;25.02;;
75655;SDS011;64252;51.094;13.714;2022-12-16T21:37:00;61.08;;;26.95;;
75655;SDS011;64252;51.094;13.714;2022-12-16T21:39:52;55.38;;;23.63;;
75655;SDS011;64252;51.094;13.714;2022-12-16T21:42:36;59.65;;;24.83;;
75655;SDS011;64252;51.094;13.714;2022-12-16T21:45:19;52.03;;;21.30;;
75655;SDS011;64252;51.094;13.714;2022-12-16T21:48:03;49.75;;;21.10;;
75655;SDS011;64252;51.094;13.714;2022-12-16T21:50:51;50.75;;;22.00;;
75655;SDS011;64252;51.094;13.714;2022-12-16T21:57:23;50.42;;;22.35;;
75655;SDS011;64252;51.094;13.714;2022-12-16T22:00:07;47.50;;;20.35;;
75655;SDS011;64252;51.094;13.714;2022-12-16T22:02:53;55.33;;;23.48;;
75655;SDS011;64252;51.094;13.714;2022-12-16T22:05:38;55.63;;;23.08;;
75655;SDS011;64252;51.094;13.714;2022-12-16T22:08:21;54.88;;;23.13;;
75655;SDS011;64252;51.094;13.714;2022-12-16T22:11:08;53.05;;;21.23;;
75655;SDS011;64252;51.094;13.714;2022-12-16T22:13:56;55.60;;;24.30;;